Time;durP1;ratioP1;P1;durP2;ratioP2;P2;SDS_P1;SDS_P2;PMS_P1;PMS_P2;Temp;Humidity;BMP_temperature;BMP_pressure;BME280_temperature;BME280_humidity;BME280_pressure;Samples;Min_cycle;Max_cycle;Signal;HPM_P1;HPM_P2
2022/08/03 00:02:19;;;;;;;;;;;;;;;24.97;53.92;100770.56;7404459;19;1830;-40
2022/08/03 00:04:48;;;;;;;;;;;;;;;24.96;54.16;100782.38;7403591;19;1735;-41
2022/08/03 00:07:16;;;;;;;;;;;;;;;25.06;53.99;100765.94;7402884;19;1674;-41
2022/08/03 00:09:45;;;;;;;;;;;;;;;24.99;54.22;100771.22;7402429;19;1756;-41
2022/08/03 00:12:13;;;;;;;;;;;;;;;24.97;53.88;100769.72;7403436;19;1683;-41
2022/08/03 00:14:41;;;;;;;;;;;;;;;25.01;54.00;100780.00;7404161;19;1853;-40
2022/08/03 00:17:12;;;;;;;;;;;;;;;24.95;54.17;100769.06;7399079;19;1962;-41
2022/08/03 00:19:40;;;;;;;;;;;;;;;24.92;54.29;100774.78;7402936;19;1511;-41
2022/08/03 00:22:09;;;;;;;;;;;;;;;24.91;54.02;100771.25;7402081;19;1620;-41
2022/08/03 00:24:37;;;;;;;;;;;;;;;24.98;54.30;100771.38;7403109;19;1445;-40
2022/08/03 00:27:06;;;;;;;;;;;;;;;25.07;53.96;100794.69;7402700;19;1902;-41
2022/08/03 00:29:34;;;;;;;;;;;;;;;24.97;54.06;100778.66;7404241;19;1419;-41
2022/08/03 00:32:02;;;;;;;;;;;;;;;25.00;54.17;100785.59;7399217;19;1960;-41
2022/08/03 00:34:33;;;;;;;;;;;;;;;24.97;54.11;100778.66;7402001;19;1907;-41
2022/08/03 00:37:01;;;;;;;;;;;;;;;24.93;54.09;100773.75;7402118;19;1788;-41
2022/08/03 00:39:29;;;;;;;;;;;;;;;24.90;54.08;100787.66;7403397;19;1779;-41
2022/08/03 00:41:58;;;;;;;;;;;;;;;24.81;53.88;100778.72;7401710;19;1639;-42
2022/08/03 00:44:26;;;;;;;;;;;;;;;24.81;54.04;100781.44;7402684;19;1810;-41
2022/08/03 00:46:54;;;;;;;;;;;;;;;24.86;54.01;100776.34;7400022;19;2051;-41
2022/08/03 00:49:23;;;;;;;;;;;;;;;24.76;53.90;100773.00;7402143;19;1810;-41
2022/08/03 00:51:54;;;;;;;;;;;;;;;24.79;53.98;100778.06;7402001;19;1673;-41
2022/08/03 00:54:22;;;;;;;;;;;;;;;24.78;53.73;100782.59;7402634;19;1880;-41
2022/08/03 00:56:51;;;;;;;;;;;;;;;24.82;53.81;100791.22;7403153;19;1103;-40
2022/08/03 00:59:20;;;;;;;;;;;;;;;24.80;54.29;100777.03;7402135;19;1844;-41
2022/08/03 01:01:48;;;;;;;;;;;;;;;24.83;54.07;100781.25;7398851;19;1853;-40
2022/08/03 01:04:16;;;;;;;;;;;;;;;24.87;54.31;100779.88;7401888;19;1627;-41
2022/08/03 01:06:47;;;;;;;;;;;;;;;24.83;54.11;100790.22;7401085;19;1604;-41
2022/08/03 01:09:22;;;;;;;;;;;;;;;24.84;54.24;100788.34;7402629;19;1691;-41
2022/08/03 01:11:52;;;;;;;;;;;;;;;24.81;53.96;100776.03;7402338;19;1918;-41
2022/08/03 01:14:23;;;;;;;;;;;;;;;24.83;54.22;100798.34;7401283;19;1759;-41
2022/08/03 01:16:56;;;;;;;;;;;;;;;24.81;53.97;100793.09;7400711;19;1541;-41
2022/08/03 01:19:33;;;;;;;;;;;;;;;24.80;53.94;100788.69;7400509;19;1739;-41
2022/08/03 01:22:06;;;;;;;;;;;;;;;24.85;54.07;100796.31;7401681;19;1748;-41
2022/08/03 01:24:44;;;;;;;;;;;;;;;24.80;54.21;100777.03;7401474;19;1545;-41
2022/08/03 01:27:16;;;;;;;;;;;;;;;24.82;54.34;100804.75;7401474;19;1897;-41
2022/08/03 01:30:02;;;;;;;;;;;;;;;24.79;54.29;100799.69;7402349;19;1040;-41
2022/08/03 01:32:36;;;;;;;;;;;;;;;24.81;54.22;100793.09;7398274;19;2059;-41
2022/08/03 01:35:06;;;;;;;;;;;;;;;24.80;54.41;100794.09;7400133;19;1852;-41
2022/08/03 01:37:38;;;;;;;;;;;;;;;24.79;54.24;100780.78;7400903;19;1795;-40
2022/08/03 01:40:08;;;;;;;;;;;;;;;24.77;54.36;100782.78;7400927;19;2069;-40
2022/08/03 01:42:38;;;;;;;;;;;;;;;24.81;54.17;100794.97;7399037;19;2039;-41
2022/08/03 01:45:07;;;;;;;;;;;;;;;24.80;54.40;100785.16;7400608;19;1967;-41
2022/08/03 01:47:38;;;;;;;;;;;;;;;24.82;54.13;100785.81;7400263;19;1764;-41
2022/08/03 01:50:08;;;;;;;;;;;;;;;24.75;54.44;100776.69;7400891;19;1579;-40
2022/08/03 01:52:39;;;;;;;;;;;;;;;24.77;54.09;100791.75;7399875;19;1569;-41
2022/08/03 01:55:09;;;;;;;;;;;;;;;24.79;54.16;100788.88;7399136;19;1869;-41
2022/08/03 01:57:38;;;;;;;;;;;;;;;24.76;53.89;100798.16;7400152;19;1824;-42
2022/08/03 02:02:43;;;;;;;;;;;;;;;24.68;54.21;100800.88;7393844;19;1393;-59
2022/08/03 02:05:13;;;;;;;;;;;;;;;24.69;54.11;100786.38;7403362;19;1777;-59
2022/08/03 02:07:42;;;;;;;;;;;;;;;24.70;54.14;100792.63;7403435;19;1530;-60
2022/08/03 02:10:13;;;;;;;;;;;;;;;24.70;54.10;100777.22;7403615;19;1325;-60
2022/08/03 02:12:44;;;;;;;;;;;;;;;24.74;54.36;100792.09;7402859;19;1345;-60
2022/08/03 02:15:14;;;;;;;;;;;;;;;24.72;54.10;100782.47;7402986;19;1845;-60
2022/08/03 02:17:46;;;;;;;;;;;;;;;24.72;54.35;100787.88;7402623;19;1475;-60
2022/08/03 02:20:15;;;;;;;;;;;;;;;24.75;54.25;100810.00;7402314;19;1609;-54
2022/08/03 02:22:44;;;;;;;;;;;;;;;24.73;54.36;100793.13;7403454;19;1527;-55
2022/08/03 02:25:14;;;;;;;;;;;;;;;24.69;54.51;100799.88;7402407;19;1613;-54
2022/08/03 02:27:47;;;;;;;;;;;;;;;24.60;54.67;100796.34;7402481;19;1333;-54
2022/08/03 02:30:16;;;;;;;;;;;;;;;24.65;54.38;100797.69;7403532;19;1459;-54
2022/08/03 02:32:53;;;;;;;;;;;;;;;24.67;54.19;100792.94;7399593;19;1382;-54
2022/08/03 02:35:23;;;;;;;;;;;;;;;24.67;54.29;100788.41;7399425;19;1850;-54
2022/08/03 02:37:53;;;;;;;;;;;;;;;24.63;54.05;100797.88;7403214;19;1343;-55
2022/08/03 02:40:22;;;;;;;;;;;;;;;24.59;54.17;100791.09;7407652;19;1321;-54
2022/08/03 02:42:53;;;;;;;;;;;;;;;24.59;54.75;100786.56;7408546;19;1214;-54
2022/08/03 02:45:22;;;;;;;;;;;;;;;24.65;54.63;100789.56;7409695;19;1430;-54
2022/08/03 02:47:54;;;;;;;;;;;;;;;24.70;54.42;100787.22;7407844;19;1360;-55
2022/08/03 02:50:24;;;;;;;;;;;;;;;24.71;54.54;100799.69;7408496;19;1588;-54
2022/08/03 02:52:53;;;;;;;;;;;;;;;24.76;54.44;100802.72;7408615;19;1530;-54
2022/08/03 02:55:23;;;;;;;;;;;;;;;24.73;54.81;100797.66;7406938;19;1842;-55
2022/08/03 02:57:52;;;;;;;;;;;;;;;24.70;54.86;100788.03;7409334;19;1348;-54
2022/08/03 03:00:21;;;;;;;;;;;;;;;24.72;54.63;100796.00;7410154;19;1000;-54
2022/08/03 03:02:50;;;;;;;;;;;;;;;24.69;54.81;100802.59;7408224;19;1761;-54
2022/08/03 03:05:21;;;;;;;;;;;;;;;24.69;54.62;100790.91;7407733;19;1418;-54
2022/08/03 03:07:50;;;;;;;;;;;;;;;24.75;54.65;100803.75;7407214;19;1441;-54
2022/08/03 03:10:19;;;;;;;;;;;;;;;24.75;54.42;100801.03;7405000;19;1388;-54
2022/08/03 03:12:48;;;;;;;;;;;;;;;24.75;54.38;100801.91;7406454;19;1532;-54
2022/08/03 03:15:17;;;;;;;;;;;;;;;24.72;54.78;100801.41;7408937;19;1866;-54
2022/08/03 03:17:46;;;;;;;;;;;;;;;24.63;55.02;100811.41;7406899;19;1732;-54
2022/08/03 03:20:19;;;;;;;;;;;;;;;24.69;54.84;100807.13;7406621;19;1599;-54
2022/08/03 03:22:50;;;;;;;;;;;;;;;24.72;54.86;100815.75;7407177;19;1481;-54
2022/08/03 03:25:20;;;;;;;;;;;;;;;24.72;54.83;100798.69;7408112;19;1489;-54
2022/08/03 03:27:49;;;;;;;;;;;;;;;24.69;54.83;100794.47;7408974;19;1642;-54
2022/08/03 03:30:17;;;;;;;;;;;;;;;24.69;54.81;100799.03;7409096;19;1538;-54
2022/08/03 03:32:46;;;;;;;;;;;;;;;24.69;55.06;100816.13;7406112;19;1589;-58
2022/08/03 03:35:15;;;;;;;;;;;;;;;24.70;55.26;100814.25;7403887;19;1845;-61
2022/08/03 03:37:44;;;;;;;;;;;;;;;24.70;55.14;100822.34;7406116;19;1538;-61
2022/08/03 03:40:16;;;;;;;;;;;;;;;24.50;55.78;100825.41;7405092;19;1317;-61
2022/08/03 03:42:44;;;;;;;;;;;;;;;24.35;56.17;100805.47;7405323;19;1347;-61
2022/08/03 03:45:14;;;;;;;;;;;;;;;24.21;55.95;100818.66;7406375;19;1379;-61
2022/08/03 03:47:43;;;;;;;;;;;;;;;24.38;55.61;100805.13;7406419;19;1197;-61
2022/08/03 03:50:12;;;;;;;;;;;;;;;24.46;55.28;100823.22;7406885;19;1339;-61
2022/08/03 03:52:41;;;;;;;;;;;;;;;24.61;55.08;100822.38;7406113;19;1324;-61
2022/08/03 03:55:10;;;;;;;;;;;;;;;24.69;54.85;100817.94;7405842;19;1228;-61
2022/08/03 03:57:41;;;;;;;;;;;;;;;24.76;54.92;100827.06;7403932;19;1857;-60
2022/08/03 04:00:10;;;;;;;;;;;;;;;24.79;54.67;100818.63;7408512;19;1273;-61
2022/08/03 04:02:38;;;;;;;;;;;;;;;24.84;54.74;100828.94;7404041;19;1344;-62
2022/08/03 04:13:23;;;;;;;;;;;;;;;24.96;54.78;100833.78;7407649;19;1332;-60
2022/08/03 04:15:52;;;;;;;;;;;;;;;24.82;55.32;100839.91;7405299;19;1876;-60
2022/08/03 04:18:21;;;;;;;;;;;;;;;24.88;55.14;100827.56;7405950;19;1548;-60
2022/08/03 04:20:51;;;;;;;;;;;;;;;24.78;55.21;100819.63;7405926;19;1533;-61
2022/08/03 04:23:23;;;;;;;;;;;;;;;24.80;54.96;100831.13;7404885;19;1338;-60
2022/08/03 04:25:52;;;;;;;;;;;;;;;24.83;55.17;100830.78;7402999;19;1344;-60
2022/08/03 04:28:25;;;;;;;;;;;;;;;24.82;54.87;100823.69;7403181;19;1407;-59
2022/08/03 04:30:54;;;;;;;;;;;;;;;24.84;55.03;100840.56;7405810;19;1557;-60
2022/08/03 04:33:24;;;;;;;;;;;;;;;24.86;55.14;100837.72;7400842;19;1511;-60
2022/08/03 04:35:54;;;;;;;;;;;;;;;24.90;55.25;100841.75;7406052;19;1864;-60
2022/08/03 04:38:23;;;;;;;;;;;;;;;24.94;55.09;100824.16;7406112;19;1521;-60
2022/08/03 04:40:52;;;;;;;;;;;;;;;25.04;54.91;100848.31;7405549;19;1628;-60
2022/08/03 04:43:21;;;;;;;;;;;;;;;25.00;55.05;100837.81;7405230;19;1271;-60
2022/08/03 04:45:53;;;;;;;;;;;;;;;25.08;54.48;100838.81;7406583;19;1541;-60
2022/08/03 04:48:22;;;;;;;;;;;;;;;25.13;54.71;100841.88;7405121;19;1669;-60
2022/08/03 04:50:50;;;;;;;;;;;;;;;25.23;54.50;100853.38;7406244;19;1325;-60
2022/08/03 04:53:19;;;;;;;;;;;;;;;25.18;54.74;100834.06;7405106;19;1386;-60
2022/08/03 04:55:48;;;;;;;;;;;;;;;25.13;54.81;100850.00;7405208;19;1849;-60
2022/08/03 04:58:16;;;;;;;;;;;;;;;25.09;54.93;100848.63;7405711;19;1526;-60
2022/08/03 05:00:49;;;;;;;;;;;;;;;25.02;54.88;100848.47;7405495;19;1049;-60
2022/08/03 05:03:20;;;;;;;;;;;;;;;25.16;54.75;100846.91;7403991;19;1672;-60
2022/08/03 05:05:49;;;;;;;;;;;;;;;25.23;54.58;100841.66;7405216;19;1620;-60
2022/08/03 05:08:17;;;;;;;;;;;;;;;25.22;54.61;100840.84;7404968;19;1309;-60
2022/08/03 05:10:46;;;;;;;;;;;;;;;25.22;54.44;100851.66;7405801;19;1520;-60
2022/08/03 05:13:14;;;;;;;;;;;;;;;25.15;54.89;100845.25;7405056;19;1641;-60
2022/08/03 05:15:43;;;;;;;;;;;;;;;25.10;55.25;100832.22;7405832;19;1853;-60
2022/08/03 05:18:12;;;;;;;;;;;;;;;25.08;55.20;100855.06;7404078;19;1735;-60
2022/08/03 05:20:43;;;;;;;;;;;;;;;25.06;55.46;100857.94;7403695;19;1340;-60
2022/08/03 05:23:12;;;;;;;;;;;;;;;25.08;55.57;100852.34;7403638;19;1345;-60
2022/08/03 05:25:40;;;;;;;;;;;;;;;25.26;55.21;100863.81;7403617;19;1380;-60
2022/08/03 05:28:09;;;;;;;;;;;;;;;25.25;54.96;100869.41;7403158;19;1360;-60
2022/08/03 05:30:38;;;;;;;;;;;;;;;25.26;55.13;100857.56;7404779;19;1030;-60
2022/08/03 05:33:07;;;;;;;;;;;;;;;25.16;55.48;100871.28;7401943;19;1881;-60
2022/08/03 05:35:37;;;;;;;;;;;;;;;25.08;55.39;100871.31;7404625;19;1399;-60
2022/08/03 05:38:09;;;;;;;;;;;;;;;25.11;54.95;100879.06;7402903;19;1841;-60
2022/08/03 14:14:08;;;;;;;;;;;;;;;23.70;59.59;100669.41;7430072;19;2046;-37
2022/08/03 14:16:37;;;;;;;;;;;;;;;23.68;58.63;100660.63;7436054;19;1797;-38
2022/08/03 14:19:05;;;;;;;;;;;;;;;23.61;57.44;100673.09;7435646;19;1746;-38
2022/08/03 14:21:34;;;;;;;;;;;;;;;23.63;56.87;100671.94;7435305;19;1864;-37
2022/08/03 14:24:03;;;;;;;;;;;;;;;23.77;57.61;100673.13;7436293;19;1646;-38
2022/08/03 14:26:31;;;;;;;;;;;;;;;23.98;58.03;100664.50;7435724;19;1532;-38
2022/08/03 14:28:59;;;;;;;;;;;;;;;24.00;58.48;100657.06;7436227;19;1596;-38
2022/08/03 14:31:30;;;;;;;;;;;;;;;24.09;59.05;100654.34;7437102;19;1450;-38
2022/08/03 14:33:59;;;;;;;;;;;;;;;24.12;59.44;100654.03;7431135;19;1472;-38
2022/08/03 14:36:27;;;;;;;;;;;;;;;24.23;59.68;100667.16;7429358;19;1725;-38
2022/08/03 14:38:55;;;;;;;;;;;;;;;24.40;59.52;100668.78;7429574;19;1720;-38
2022/08/03 14:41:23;;;;;;;;;;;;;;;24.80;55.87;100658.03;7428232;19;1987;-38
2022/08/03 14:43:52;;;;;;;;;;;;;;;24.87;55.35;100664.44;7429498;19;1815;-38
2022/08/03 14:46:20;;;;;;;;;;;;;;;25.32;54.93;100654.69;7431068;19;1434;-39
2022/08/03 14:48:51;;;;;;;;;;;;;;;25.58;52.39;100650.78;7428228;19;1698;-39
2022/08/03 14:51:19;;;;;;;;;;;;;;;25.69;52.34;100650.34;7433633;19;1465;-39
2022/08/03 14:53:47;;;;;;;;;;;;;;;25.80;49.86;100649.06;7431848;19;1511;-39
2022/08/03 14:56:16;;;;;;;;;;;;;;;25.93;50.95;100643.91;7428855;19;1708;-40
2022/08/03 14:58:44;;;;;;;;;;;;;;;25.63;52.54;100652.97;7434298;19;1699;-39
2022/08/03 15:01:12;;;;;;;;;;;;;;;25.06;49.66;100652.31;7434227;19;1906;-38
2022/08/03 15:03:41;;;;;;;;;;;;;;;24.67;48.76;100630.69;7432890;19;1940;-37
2022/08/03 15:06:18;;;;;;;;;;;;;;;24.65;47.46;100641.72;7430322;19;1805;-38
2022/08/03 15:08:46;;;;;;;;;;;;;;;24.48;47.08;100638.19;7431194;19;1927;-38
2022/08/03 15:11:16;;;;;;;;;;;;;;;24.41;47.78;100648.00;7431277;19;1769;-38
2022/08/03 15:13:49;;;;;;;;;;;;;;;24.79;47.81;100634.72;7420102;19;1720;-38
2022/08/03 15:16:21;;;;;;;;;;;;;;;25.00;46.99;100655.72;7407470;19;1502;-38
2022/08/03 15:18:49;;;;;;;;;;;;;;;25.08;47.02;100639.44;7404667;19;1726;-40
2022/08/03 15:21:39;;;;;;;;;;;;;;;24.97;46.99;100647.97;7403910;19;1459;-38
2022/08/03 15:24:14;;;;;;;;;;;;;;;24.73;47.97;100643.50;7404428;19;1594;-38
2022/08/03 15:27:17;;;;;;;;;;;;;;;24.75;48.63;100641.47;7401884;19;1507;-40
2022/08/03 15:29:47;;;;;;;;;;;;;;;25.01;50.00;100643.91;7403710;19;1319;-39
2022/08/03 15:32:16;;;;;;;;;;;;;;;24.89;52.93;100646.16;7402667;19;1696;-38
2022/08/03 15:34:47;;;;;;;;;;;;;;;25.20;52.89;100620.94;7404850;19;1641;-39
2022/08/03 15:37:16;;;;;;;;;;;;;;;25.34;52.92;100639.13;7404365;19;1532;-39
2022/08/03 15:39:53;;;;;;;;;;;;;;;25.48;52.46;100633.94;7402557;19;1389;-39
2022/08/03 15:42:22;;;;;;;;;;;;;;;25.62;50.89;100630.44;7404160;19;1868;-39
2022/08/03 15:44:50;;;;;;;;;;;;;;;25.75;50.64;100619.00;7405604;19;1403;-39
2022/08/03 15:47:18;;;;;;;;;;;;;;;25.77;50.94;100617.78;7403738;19;1808;-40
2022/08/03 15:49:46;;;;;;;;;;;;;;;25.76;50.67;100621.50;7402734;19;1823;-39
2022/08/03 15:52:19;;;;;;;;;;;;;;;25.76;50.41;100612.53;7404456;19;1643;-38
2022/08/03 15:54:50;;;;;;;;;;;;;;;25.86;50.27;100609.56;7404301;19;1491;-38
2022/08/03 15:57:19;;;;;;;;;;;;;;;25.96;49.37;100621.00;7402572;19;1856;-37
2022/08/03 15:59:56;;;;;;;;;;;;;;;25.93;49.62;100615.97;7403898;19;1805;-37
2022/08/03 16:02:27;;;;;;;;;;;;;;;25.94;49.87;100618.50;7403097;19;1862;-37
2022/08/03 16:05:01;;;;;;;;;;;;;;;25.98;50.06;100624.38;7402926;19;1753;-38
2022/08/03 16:10:19;;;;;;;;;;;;;;;26.14;49.72;100629.63;7404326;19;1441;-38
2022/08/03 16:12:49;;;;;;;;;;;;;;;26.16;50.21;100627.56;7401379;19;1632;-38
2022/08/03 16:15:38;;;;;;;;;;;;;;;26.21;50.10;100631.59;7406349;19;1750;-38
2022/08/03 16:18:07;;;;;;;;;;;;;;;26.23;50.58;100616.81;7403923;19;1498;-38
2022/08/03 16:20:47;;;;;;;;;;;;;;;26.21;50.08;100623.47;7404207;19;1487;-40
2022/08/03 16:26:10;;;;;;;;;;;;;;;26.26;50.26;100638.16;7398340;19;2346;-39
2022/08/03 16:28:42;;;;;;;;;;;;;;;26.18;50.36;100625.53;7400428;19;2156;-40
2022/08/03 16:31:10;;;;;;;;;;;;;;;26.16;49.36;100621.28;7402167;19;1454;-40
2022/08/03 16:33:39;;;;;;;;;;;;;;;26.19;50.40;100627.19;7396392;19;2403;-37
2022/08/03 16:36:10;;;;;;;;;;;;;;;26.18;49.56;100628.22;7401302;19;1333;-40
2022/08/03 16:38:44;;;;;;;;;;;;;;;26.27;49.34;100622.72;7404424;19;1382;-39
2022/08/03 16:41:17;;;;;;;;;;;;;;;26.28;50.12;100627.94;7402525;19;1462;-40
2022/08/03 16:44:10;;;;;;;;;;;;;;;26.27;50.21;100622.72;7402048;19;1849;-40
2022/08/03 16:46:52;;;;;;;;;;;;;;;26.29;48.94;100628.78;7402114;19;1482;-40
2022/08/03 16:49:25;;;;;;;;;;;;;;;26.23;49.68;100624.13;7402889;19;1491;-40
2022/08/03 16:51:53;;;;;;;;;;;;;;;26.27;49.80;100645.22;7401559;19;1714;-40
2022/08/03 16:54:22;;;;;;;;;;;;;;;26.21;49.14;100629.72;7400910;19;1494;-40
2022/08/03 16:56:53;;;;;;;;;;;;;;;26.20;48.08;100636.16;7401567;19;1487;-40
2022/08/03 16:59:21;;;;;;;;;;;;;;;26.17;48.04;100633.84;7401996;19;2025;-41
2022/08/03 17:01:50;;;;;;;;;;;;;;;26.17;47.99;100631.94;7401025;19;1372;-41
2022/08/03 17:04:18;;;;;;;;;;;;;;;26.18;48.13;100630.94;7397179;19;1871;-40
2022/08/03 17:06:46;;;;;;;;;;;;;;;26.18;49.06;100630.94;7397274;19;1811;-40
2022/08/03 17:09:17;;;;;;;;;;;;;;;26.16;47.76;100634.84;7399617;19;1835;-39
2022/08/03 17:11:46;;;;;;;;;;;;;;;26.18;49.43;100644.50;7398207;19;1522;-40
2022/08/03 17:14:18;;;;;;;;;;;;;;;26.15;49.00;100636.72;7400858;19;1657;-40
2022/08/03 17:16:48;;;;;;;;;;;;;;;26.18;48.18;100646.34;7402186;19;1040;-40
2022/08/03 17:19:16;;;;;;;;;;;;;;;26.23;49.25;100654.75;7400700;19;1610;-40
2022/08/03 17:21:57;;;;;;;;;;;;;;;26.19;49.14;100643.44;7401059;19;1902;-40
2022/08/03 17:24:28;;;;;;;;;;;;;;;26.18;48.93;100647.19;7397967;19;1859;-40
2022/08/03 17:26:57;;;;;;;;;;;;;;;26.17;49.03;100655.50;7397397;19;1635;-40
2022/08/03 17:29:29;;;;;;;;;;;;;;;26.16;48.38;100657.38;7400792;19;1641;-40
2022/08/03 17:31:57;;;;;;;;;;;;;;;26.16;48.92;100649.25;7401888;19;1395;-41
2022/08/03 17:34:26;;;;;;;;;;;;;;;26.16;48.63;100660.09;7401051;19;1588;-39
2022/08/03 17:36:55;;;;;;;;;;;;;;;26.17;48.93;100661.78;7399155;19;1803;-40
2022/08/03 17:39:23;;;;;;;;;;;;;;;26.14;48.47;100653.16;7400757;19;1624;-40
2022/08/03 17:41:52;;;;;;;;;;;;;;;26.06;48.16;100656.78;7400434;19;1817;-40
2022/08/03 17:44:20;;;;;;;;;;;;;;;26.17;48.75;100677.19;7398613;19;1879;-40
2022/08/03 17:46:51;;;;;;;;;;;;;;;26.05;47.31;100674.09;7401036;19;1117;-40
2022/08/03 17:49:20;;;;;;;;;;;;;;;26.09;48.02;100672.69;7397097;19;1538;-40
2022/08/03 17:51:51;;;;;;;;;;;;;;;26.08;47.18;100675.59;7400177;19;1633;-41
2022/08/03 17:54:22;;;;;;;;;;;;;;;26.06;47.38;100670.34;7399769;19;1598;-40
2022/08/03 17:56:53;;;;;;;;;;;;;;;26.11;47.03;100680.66;7397870;19;1887;-40
2022/08/03 17:59:23;;;;;;;;;;;;;;;26.11;47.03;100678.78;7400044;19;1613;-41
2022/08/03 18:04:40;;;;;;;;;;;;;;;26.06;46.77;100683.88;7399748;19;1863;-40
2022/08/03 18:07:10;;;;;;;;;;;;;;;26.09;46.88;100691.66;7400227;19;1899;-40
2022/08/03 18:09:42;;;;;;;;;;;;;;;26.07;46.82;100692.88;7399922;19;1634;-39
2022/08/03 18:12:17;;;;;;;;;;;;;;;26.06;46.44;100693.91;7399775;19;1570;-40
2022/08/03 18:14:50;;;;;;;;;;;;;;;26.07;46.37;100701.84;7401025;19;1543;-39
2022/08/03 18:17:23;;;;;;;;;;;;;;;26.04;48.01;100693.25;7400098;19;1555;-40
2022/08/03 18:20:00;;;;;;;;;;;;;;;26.07;47.50;100698.31;7399946;19;1462;-40
2022/08/03 18:22:29;;;;;;;;;;;;;;;26.10;47.82;100703.34;7399845;19;1692;-39
2022/08/03 18:25:00;;;;;;;;;;;;;;;26.11;49.28;100715.88;7398066;19;1861;-41
2022/08/03 18:27:32;;;;;;;;;;;;;;;26.13;47.38;100728.22;7399552;19;1443;-40
2022/08/03 18:30:06;;;;;;;;;;;;;;;26.14;46.98;100720.91;7399725;19;1860;-40
2022/08/03 18:32:49;;;;;;;;;;;;;;;26.12;47.01;100715.69;7399152;19;1638;-41
2022/08/03 18:35:40;;;;;;;;;;;;;;;;;;;;;
2022/08/03 18:38:10;;;;;;;;;;;;;;;26.04;47.92;100732.00;7398432;19;1805;-40
2022/08/03 18:40:46;;;;;;;;;;;;;;;26.02;46.26;100728.66;7400217;19;1581;-40
2022/08/03 18:43:16;;;;;;;;;;;;;;;26.02;47.33;100730.53;7399352;19;1862;-40
2022/08/03 18:45:55;;;;;;;;;;;;;;;25.96;47.84;100716.69;7401098;19;1516;-40
2022/08/03 18:48:29;;;;;;;;;;;;;;;25.94;46.92;100728.72;7398527;19;1620;-40
2022/08/03 18:51:01;;;;;;;;;;;;;;;25.93;46.06;100722.47;7405517;19;1627;-40
2022/08/03 18:53:34;;;;;;;;;;;;;;;25.95;46.58;100743.97;7406846;19;1644;-40
2022/08/03 18:56:04;;;;;;;;;;;;;;;25.96;45.41;100748.34;7406691;19;1544;-40
2022/08/03 18:58:36;;;;;;;;;;;;;;;26.01;45.88;100748.66;7408411;19;1566;-40
2022/08/03 19:01:11;;;;;;;;;;;;;;;26.01;45.96;100737.81;7407108;19;1316;-40
2022/08/03 19:03:44;;;;;;;;;;;;;;;25.94;45.37;100759.38;7403471;19;1878;-40
2022/08/03 19:06:17;;;;;;;;;;;;;;;25.90;44.60;100762.59;7405269;19;1565;-40
2022/08/03 19:08:48;;;;;;;;;;;;;;;25.91;45.89;100750.78;7403960;19;1687;-40
2022/08/03 19:11:19;;;;;;;;;;;;;;;25.89;47.03;100755.50;7403398;19;1723;-41
2022/08/03 19:13:52;;;;;;;;;;;;;;;25.85;46.88;100767.72;7400289;19;1542;-41
2022/08/03 19:16:26;;;;;;;;;;;;;;;25.85;44.26;100765.03;7404137;19;1567;-41
2022/08/03 19:19:03;;;;;;;;;;;;;;;25.91;47.30;100765.16;7406427;19;1613;-39
2022/08/03 19:21:32;;;;;;;;;;;;;;;25.95;46.24;100773.78;7403937;19;1490;-38
2022/08/03 19:24:10;;;;;;;;;;;;;;;25.97;45.59;100779.84;7403219;19;1868;-39
2022/08/03 19:26:40;;;;;;;;;;;;;;;25.89;46.71;100777.19;7405607;19;1933;-39
2022/08/03 19:29:11;;;;;;;;;;;;;;;25.86;46.14;100774.81;7405336;19;1525;-38
2022/08/03 19:31:40;;;;;;;;;;;;;;;25.85;44.53;100792.09;7405441;19;1349;-38
2022/08/03 19:34:16;;;;;;;;;;;;;;;25.84;44.86;100787.69;7404010;19;1618;-38
2022/08/03 19:36:48;;;;;;;;;;;;;;;25.74;43.83;100788.75;7404752;19;1913;-39
2022/08/03 19:39:22;;;;;;;;;;;;;;;25.77;45.07;100801.97;7405530;19;1548;-39
2022/08/03 19:41:56;;;;;;;;;;;;;;;25.85;45.75;100802.94;7405053;19;1532;-38
2022/08/03 19:44:28;;;;;;;;;;;;;;;25.83;45.29;100783.31;7404023;19;1840;-38
2022/08/03 19:47:04;;;;;;;;;;;;;;;25.79;44.76;100799.91;7404399;19;1333;-38
2022/08/03 19:49:47;;;;;;;;;;;;;;;25.89;45.52;100778.00;7405055;19;1484;-38
2022/08/03 19:52:27;;;;;;;;;;;;;;;25.93;45.86;100800.19;7405557;19;1491;-39
2022/08/03 19:57:56;;;;;;;;;;;;;;;25.90;45.50;100795.09;7402634;19;1996;-39
2022/08/03 20:00:28;;;;;;;;;;;;;;;25.84;45.15;100785.81;7405228;19;1547;-38
2022/08/03 20:03:08;;;;;;;;;;;;;;;25.80;44.40;100804.31;7403394;19;1609;-39
2022/08/03 20:05:41;;;;;;;;;;;;;;;25.70;44.45;100806.41;7403654;19;1648;-38
2022/08/03 20:08:16;;;;;;;;;;;;;;;25.56;44.28;100809.88;7404153;19;1724;-38
2022/08/03 20:10:51;;;;;;;;;;;;;;;25.60;44.24;100805.78;7403909;19;1723;-39
2022/08/03 20:13:34;;;;;;;;;;;;;;;25.59;44.25;100810.38;7403986;19;1735;-38
2022/08/03 20:16:09;;;;;;;;;;;;;;;25.58;44.26;100807.84;7404584;19;1898;-38
2022/08/03 20:18:38;;;;;;;;;;;;;;;25.67;44.25;100817.63;7404766;19;1450;-38
2022/08/03 20:21:17;;;;;;;;;;;;;;;25.68;44.08;100808.44;7404005;19;1796;-38
2022/08/03 20:23:58;;;;;;;;;;;;;;;25.61;44.15;100818.31;7402901;19;1853;-39
2022/08/03 20:26:32;;;;;;;;;;;;;;;25.70;44.26;100822.66;7401074;19;1672;-38
2022/08/03 20:29:04;;;;;;;;;;;;;;;25.78;44.58;100827.19;7400214;19;1929;-38
2022/08/03 20:31:54;;;;;;;;;;;;;;;25.74;44.76;100810.44;7401633;19;1672;-39
2022/08/03 20:34:26;;;;;;;;;;;;;;;25.75;45.03;100808.59;7398341;19;1993;-39
2022/08/03 20:36:57;;;;;;;;;;;;;;;25.77;45.02;100826.34;7402412;19;1602;-39
2022/08/03 20:39:34;;;;;;;;;;;;;;;25.79;44.85;100818.03;7403673;19;1651;-40
2022/08/03 20:42:03;;;;;;;;;;;;;;;25.76;45.22;100821.94;7401824;19;1678;-38
2022/08/03 20:44:36;;;;;;;;;;;;;;;25.74;45.45;100834.81;7402032;19;1878;-38
2022/08/03 20:50:30;;;;;;;;;;;;;;;25.66;45.06;100834.88;7398830;19;2121;-39
2022/08/03 20:56:07;;;;;;;;;;;;;;;25.67;45.88;100844.69;7400869;19;2368;-39
2022/08/03 20:58:36;;;;;;;;;;;;;;;25.62;46.11;100841.66;7404206;19;1576;-39
2022/08/03 21:01:09;;;;;;;;;;;;;;;25.65;45.86;100838.63;7403658;19;1911;-39
2022/08/03 21:03:39;;;;;;;;;;;;;;;25.62;45.53;100835.41;7400494;19;1842;-38
2022/08/03 21:06:18;;;;;;;;;;;;;;;25.55;45.62;100833.41;7401772;19;1543;-38
2022/08/03 21:08:59;;;;;;;;;;;;;;;25.54;45.59;100833.59;7402490;19;1502;-38
2022/08/03 21:11:38;;;;;;;;;;;;;;;25.59;46.25;100831.19;7400362;19;1903;-38
2022/08/03 21:14:21;;;;;;;;;;;;;;;25.56;45.98;100835.09;7401938;19;1652;-38
2022/08/03 21:19:49;;;;;;;;;;;;;;;25.53;45.82;100842.75;7399466;19;2123;-38
2022/08/03 21:22:18;;;;;;;;;;;;;;;25.36;45.70;100842.78;7402322;19;1724;-38
2022/08/03 21:25:08;;;;;;;;;;;;;;;25.45;45.98;100838.22;7401198;19;1840;-38
2022/08/03 21:27:57;;;;;;;;;;;;;;;25.48;46.09;100842.41;7402281;19;1898;-38
2022/08/03 21:30:30;;;;;;;;;;;;;;;25.47;46.19;100843.47;7402886;19;1793;-38
2022/08/03 21:32:59;;;;;;;;;;;;;;;25.56;46.33;100853.22;7401651;19;1746;-39
2022/08/03 21:35:30;;;;;;;;;;;;;;;25.51;46.06;100851.03;7401045;19;1689;-38
2022/08/03 21:40:57;;;;;;;;;;;;;;;25.29;46.39;100847.25;7404206;19;1552;-38
2022/08/03 21:43:32;;;;;;;;;;;;;;;25.28;46.32;100867.19;7400834;19;1481;-37
2022/08/03 21:46:11;;;;;;;;;;;;;;;25.37;46.57;100858.03;7399818;19;1849;-38
2022/08/03 21:48:46;;;;;;;;;;;;;;;25.39;46.28;100861.41;7400874;19;1902;-38
2022/08/03 21:51:21;;;;;;;;;;;;;;;25.28;46.77;100866.34;7400765;19;1945;-38
2022/08/03 21:53:53;;;;;;;;;;;;;;;25.21;46.55;100868.91;7397777;19;1598;-38
2022/08/03 21:56:34;;;;;;;;;;;;;;;25.16;46.71;100869.41;7398778;19;1575;-38
2022/08/03 21:59:10;;;;;;;;;;;;;;;25.17;46.25;100865.69;7400592;19;1965;-38
2022/08/03 22:01:41;;;;;;;;;;;;;;;25.22;46.03;100862.50;7404245;19;1373;-37
2022/08/03 22:04:11;;;;;;;;;;;;;;;25.29;46.23;100862.66;7399521;19;1868;-38
2022/08/03 22:06:41;;;;;;;;;;;;;;;25.26;46.05;100857.56;7399898;19;1703;-38
2022/08/03 22:09:33;;;;;;;;;;;;;;;25.30;46.40;100867.03;7401279;19;1580;-38
2022/08/03 22:12:02;;;;;;;;;;;;;;;25.32;46.17;100879.34;7400319;19;1689;-39
2022/08/03 22:14:35;;;;;;;;;;;;;;;25.33;46.56;100859.41;7401716;19;1494;-38
2022/08/03 22:17:05;;;;;;;;;;;;;;;25.30;46.16;100870.56;7400794;19;1600;-39
2022/08/03 22:19:35;;;;;;;;;;;;;;;25.30;46.23;100881.41;7400739;19;1991;-39